Time;durP1;ratioP1;P1;durP2;ratioP2;P2;SDS_P1;SDS_P2;PMS_P1;PMS_P2;Temp;Humidity;BMP_temperature;BMP_pressure;BME280_temperature;BME280_humidity;BME280_pressure;Samples;Min_cycle;Max_cycle;Signal;HPM_P1;HPM_P2
2022/05/15 00:02:32;;;;;;;12.60;11.60;;;16.00;97.60;;;;;;5053036;28;20405;-64
2022/05/15 00:04:58;;;;;;;13.00;11.73;;;16.00;97.50;;;;;;5053184;28;20462;-64
2022/05/15 00:07:23;;;;;;;12.30;11.27;;;16.10;97.70;;;;;;5052078;28;20775;-64
2022/05/15 00:09:49;;;;;;;13.23;12.10;;;16.00;97.50;;;;;;5052257;28;20179;-64
2022/05/15 00:12:20;;;;;;;13.27;12.07;;;15.90;97.50;;;;;;5051944;28;20275;-64
2022/05/15 00:14:47;;;;;;;12.60;11.50;;;15.90;97.60;;;;;;5053010;28;20173;-64
2022/05/15 00:17:13;;;;;;;12.97;11.97;;;15.90;97.70;;;;;;5050754;28;20887;-64
2022/05/15 00:19:40;;;;;;;12.87;11.77;;;15.90;98.00;;;;;;5051247;28;20462;-64
2022/05/15 00:22:07;;;;;;;12.13;11.10;;;15.90;97.50;;;;;;5051815;28;20911;-65
2022/05/15 00:24:36;;;;;;;12.43;11.23;;;15.90;97.50;;;;;;5052067;28;20453;-64
2022/05/15 00:27:03;;;;;;;12.33;11.20;;;15.90;97.50;;;;;;5052062;28;20420;-71
2022/05/15 00:29:30;;;;;;;13.17;11.97;;;15.90;97.40;;;;;;5051748;28;20416;-65
2022/05/15 00:31:57;;;;;;;11.83;10.83;;;15.90;97.60;;;;;;5032813;28;20422;-64
2022/05/15 00:34:23;;;;;;;12.00;11.00;;;15.80;97.40;;;;;;5014038;28;20423;-64
2022/05/15 00:36:49;;;;;;;12.67;11.40;;;15.90;97.40;;;;;;5033014;28;20416;-64
2022/05/15 00:39:15;;;;;;;13.43;12.17;;;15.80;97.40;;;;;;5031957;28;20902;-64
2022/05/15 00:41:40;;;;;;;12.77;11.57;;;15.80;97.50;;;;;;5032637;28;20184;-64
2022/05/15 00:44:08;;;;;;;13.80;12.60;;;15.70;97.50;;;;;;5031492;28;20462;-65
2022/05/15 00:46:39;;;;;;;12.67;11.67;;;15.70;97.60;;;;;;5032538;28;20172;-64
2022/05/15 00:49:13;;;;;;;13.30;12.00;;;15.50;97.70;;;;;;5031533;28;20422;-70
2022/05/15 00:51:42;;;;;;;14.27;13.07;;;15.40;98.10;;;;;;5031479;28;20514;-64
2022/05/15 00:54:34;;;;;;;14.43;13.03;;;15.30;98.50;;;;;;5031618;28;20465;-65
2022/05/15 00:57:12;;;;;;;13.10;12.00;;;15.20;98.70;;;;;;5028683;28;20489;-64
2022/05/15 00:59:45;;;;;;;13.97;12.43;;;15.10;99.00;;;;;;5032682;28;20414;-64
2022/05/15 01:02:11;;;;;;;12.87;11.67;;;15.20;99.30;;;;;;5031613;28;20391;-64
2022/05/15 01:04:37;;;;;;;13.07;11.87;;;15.20;99.00;;;;;;5031991;28;20464;-64
2022/05/15 01:07:05;;;;;;;13.50;11.93;;;15.20;98.70;;;;;;5032401;28;20971;-70
2022/05/15 01:09:31;;;;;;;12.83;11.73;;;15.30;98.70;;;;;;5032460;28;20180;-64
2022/05/15 01:12:00;;;;;;;13.77;12.47;;;15.30;98.50;;;;;;5052150;28;20414;-64
2022/05/15 01:14:26;;;;;;;13.70;12.40;;;15.30;98.40;;;;;;5050140;28;20450;-64
2022/05/15 01:16:51;;;;;;;13.57;11.57;;;15.30;98.40;;;;;;5051964;28;20417;-65
2022/05/15 01:19:29;;;;;;;13.47;12.27;;;15.30;98.40;;;;;;5049756;28;20556;-64
2022/05/15 01:21:57;;;;;;;12.63;11.43;;;15.30;98.30;;;;;;5049790;28;20193;-64
2022/05/15 01:24:24;;;;;;;13.80;12.37;;;15.30;98.30;;;;;;5050918;28;20536;-64
2022/05/15 01:26:51;;;;;;;12.97;11.97;;;15.20;98.20;;;;;;5050957;28;20498;-67
2022/05/15 01:29:17;;;;;;;13.23;12.13;;;15.20;98.20;;;;;;5050340;28;21010;-64
2022/05/15 01:31:47;;;;;;;12.57;11.53;;;15.30;98.30;;;;;;5050903;28;20439;-64
2022/05/15 01:34:13;;;;;;;12.47;11.47;;;15.20;98.20;;;;;;5051120;28;20423;-64
2022/05/15 01:36:39;;;;;;;12.70;11.60;;;15.20;98.10;;;;;;5051854;28;20437;-64
2022/05/15 01:39:05;;;;;;;12.13;11.33;;;15.20;98.00;;;;;;5050736;28;20227;-70
2022/05/15 01:41:31;;;;;;;13.20;12.20;;;15.20;98.10;;;;;;5049928;28;20427;-64
2022/05/15 01:43:57;;;;;;;12.97;11.87;;;15.20;98.20;;;;;;5051863;28;20463;-64
2022/05/15 01:46:25;;;;;;;13.00;11.80;;;15.20;98.30;;;;;;5048629;28;20311;-64
2022/05/15 01:48:52;;;;;;;13.30;12.20;;;15.20;98.50;;;;;;5051851;28;20179;-64
2022/05/15 01:51:18;;;;;;;13.40;12.13;;;15.20;98.20;;;;;;5050494;28;20438;-64
2022/05/15 01:53:44;;;;;;;11.93;11.10;;;15.10;97.90;;;;;;5050066;28;20468;-64
2022/05/15 01:56:10;;;;;;;12.57;11.47;;;15.10;98.00;;;;;;5050779;28;20927;-70
2022/05/15 01:58:36;;;;;;;13.30;12.30;;;15.20;98.10;;;;;;5051431;28;20207;-64
2022/05/15 02:01:03;;;;;;;13.00;11.90;;;15.10;98.10;;;;;;5050860;28;20424;-64
2022/05/15 02:03:28;;;;;;;12.63;11.67;;;15.10;98.10;;;;;;5050530;28;20492;-64
2022/05/15 02:05:55;;;;;;;12.03;11.00;;;15.10;98.00;;;;;;5050763;28;20456;-64
2022/05/15 02:08:21;;;;;;;12.27;11.20;;;15.00;98.00;;;;;;5050855;28;20183;-64
2022/05/15 02:10:46;;;;;;;13.33;11.60;;;15.00;98.10;;;;;;5048922;28;20521;-68
2022/05/15 02:13:12;;;;;;;12.77;11.50;;;15.00;98.10;;;;;;5049764;28;20429;-64
2022/05/15 02:15:38;;;;;;;11.90;11.00;;;15.00;97.90;;;;;;5051265;28;20256;-64
2022/05/15 02:18:04;;;;;;;12.67;11.47;;;14.90;97.90;;;;;;5051760;28;20408;-64
2022/05/15 02:20:31;;;;;;;12.33;11.33;;;14.90;98.00;;;;;;5050911;28;20274;-64
2022/05/15 02:22:57;;;;;;;12.30;11.10;;;14.80;97.90;;;;;;5054701;28;20432;-64
2022/05/15 02:25:23;;;;;;;13.10;11.93;;;14.80;98.40;;;;;;5054042;28;20483;-64
2022/05/15 02:27:49;;;;;;;12.90;11.73;;;14.80;98.20;;;;;;5053911;28;20939;-64
2022/05/15 02:30:17;;;;;;;12.20;11.13;;;14.90;98.30;;;;;;5054198;28;20183;-64
2022/05/15 02:32:44;;;;;;;12.77;11.47;;;14.80;98.30;;;;;;5051991;28;20465;-64
2022/05/15 02:35:10;;;;;;;12.53;11.23;;;14.80;98.20;;;;;;5053570;28;20444;-70
2022/05/15 02:37:36;;;;;;;13.23;11.93;;;14.80;98.20;;;;;;5054660;28;20415;-64
2022/05/15 02:40:05;;;;;;;13.43;12.33;;;14.80;98.10;;;;;;5054840;28;20412;-64
2022/05/15 02:42:31;;;;;;;12.23;11.20;;;14.70;98.20;;;;;;5053752;28;20880;-64
2022/05/15 02:44:57;;;;;;;12.27;11.27;;;14.70;98.20;;;;;;5054698;28;20460;-64
2022/05/15 02:47:24;;;;;;;12.50;11.50;;;14.70;98.20;;;;;;5052893;28;20771;-64
2022/05/15 02:52:34;;;;;;;12.23;11.20;;;14.70;98.20;;;;;;5053786;28;20404;-64
2022/05/15 02:55:00;;;;;;;12.90;11.90;;;14.60;98.20;;;;;;5053626;28;20439;-64
2022/05/15 02:57:26;;;;;;;14.00;12.47;;;14.60;98.20;;;;;;5053755;28;20173;-64
2022/05/15 02:59:52;;;;;;;13.80;12.47;;;14.60;98.20;;;;;;5054703;28;20190;-64
2022/05/15 03:02:18;;;;;;;13.90;12.70;;;14.60;98.20;;;;;;5052193;28;20961;-64
2022/05/15 03:04:44;;;;;;;14.57;13.30;;;14.60;98.10;;;;;;5054316;28;20460;-64
2022/05/15 03:07:10;;;;;;;15.13;13.67;;;14.60;98.10;;;;;;5053833;28;20271;-69
2022/05/15 03:09:35;;;;;;;13.17;12.17;;;14.50;98.20;;;;;;5053250;28;20183;-64
2022/05/15 03:12:01;;;;;;;13.37;12.23;;;14.50;98.20;;;;;;5053074;28;20591;-64
2022/05/15 03:14:27;;;;;;;13.77;12.60;;;14.50;98.10;;;;;;5053387;28;20430;-64
2022/05/15 03:16:53;;;;;;;14.53;13.30;;;14.50;98.10;;;;;;5052648;28;20832;-64
2022/05/15 03:19:18;;;;;;;14.20;12.90;;;14.50;98.10;;;;;;5052109;28;20334;-64
2022/05/15 03:21:44;;;;;;;13.43;12.13;;;14.40;98.10;;;;;;5054194;28;20674;-64
2022/05/15 03:24:11;;;;;;;13.43;12.33;;;14.40;98.00;;;;;;5053497;28;20271;-64
2022/05/15 03:26:41;;;;;;;14.97;13.57;;;14.40;98.20;;;;;;5053842;28;20180;-64
2022/05/15 03:29:09;;;;;;;13.30;12.10;;;14.40;98.20;;;;;;5054137;28;20423;-64
2022/05/15 03:31:35;;;;;;;13.60;12.50;;;14.40;98.10;;;;;;5052787;28;21012;-64
2022/05/15 03:34:05;;;;;;;13.43;12.10;;;14.40;98.00;;;;;;5052920;28;20768;-64
2022/05/15 03:36:32;;;;;;;13.37;12.10;;;14.40;98.30;;;;;;5034955;28;20702;-64
2022/05/15 03:38:57;;;;;;;13.97;12.47;;;14.40;98.40;;;;;;5033771;28;20416;-64
2022/05/15 03:41:23;;;;;;;12.30;11.27;;;14.40;98.30;;;;;;5049516;28;20477;-64
2022/05/15 03:43:49;;;;;;;15.07;11.63;;;14.40;98.20;;;;;;5053488;28;20270;-64
2022/05/15 03:46:15;;;;;;;12.40;11.40;;;14.40;98.00;;;;;;5052539;28;20210;-71
2022/05/15 03:48:40;;;;;;;13.00;12.00;;;14.30;98.00;;;;;;5053000;28;20227;-64
2022/05/15 03:51:07;;;;;;;13.70;12.57;;;14.30;98.30;;;;;;5053813;28;20630;-64
2022/05/15 03:53:33;;;;;;;13.23;12.03;;;14.30;98.40;;;;;;5051595;28;20644;-64
2022/05/15 03:56:00;;;;;;;13.17;12.10;;;14.30;98.20;;;;;;5053203;28;20420;-64
2022/05/15 03:58:28;;;;;;;13.30;12.10;;;14.20;98.00;;;;;;5052522;28;20448;-64
2022/05/15 04:00:54;;;;;;;13.77;12.57;;;14.20;98.10;;;;;;5052344;28;20454;-64
2022/05/15 04:03:20;;;;;;;13.43;12.30;;;14.20;98.20;;;;;;5052285;28;20415;-65
2022/05/15 04:05:46;;;;;;;13.77;12.37;;;14.20;98.40;;;;;;5053167;28;20453;-64
2022/05/15 04:08:12;;;;;;;13.93;12.60;;;14.20;98.60;;;;;;5053131;28;20769;-64
2022/05/15 04:10:38;;;;;;;13.80;12.60;;;14.20;98.70;;;;;;5052307;28;20410;-64
2022/05/15 04:13:04;;;;;;;13.87;12.67;;;14.20;98.20;;;;;;5053001;28;20230;-64
2022/05/15 04:15:31;;;;;;;13.80;12.03;;;14.20;98.30;;;;;;5050481;28;20209;-64
2022/05/15 04:17:57;;;;;;;13.93;12.73;;;14.20;98.30;;;;;;5052584;28;20416;-64
2022/05/15 04:20:26;;;;;;;12.87;11.87;;;14.10;98.50;;;;;;5050572;28;20545;-65
2022/05/15 04:22:52;;;;;;;13.47;12.10;;;14.20;98.90;;;;;;5052611;28;20766;-65
2022/05/15 04:25:19;;;;;;;13.23;12.03;;;14.20;99.20;;;;;;5049605;28;20467;-72
2022/05/15 04:27:45;;;;;;;13.47;12.37;;;14.20;99.20;;;;;;5053856;28;20426;-65
2022/05/15 04:30:14;;;;;;;13.17;11.97;;;14.30;99.10;;;;;;5051940;28;20423;-66
2022/05/15 04:32:41;;;;;;;13.00;11.90;;;14.30;99.20;;;;;;5043658;28;20430;-65
2022/05/15 04:35:08;;;;;;;13.23;12.13;;;14.30;99.00;;;;;;5050374;28;20939;-66
2022/05/15 04:37:35;;;;;;;14.37;12.87;;;14.30;99.00;;;;;;5050739;28;20423;-65
2022/05/15 04:40:01;;;;;;;13.67;12.43;;;14.20;99.50;;;;;;5051341;28;20514;-66
2022/05/15 04:42:27;;;;;;;13.83;12.67;;;14.10;99.90;;;;;;5054806;28;20558;-67
2022/05/15 04:44:52;;;;;;;14.30;13.10;;;14.10;99.90;;;;;;5051826;28;20460;-67
2022/05/15 04:47:18;;;;;;;14.30;13.20;;;14.10;99.90;;;;;;5052197;28;20647;-72
2022/05/15 04:49:44;;;;;;;14.20;13.00;;;14.20;99.90;;;;;;5052571;28;20187;-67
2022/05/15 04:52:10;;;;;;;14.30;13.10;;;14.20;99.90;;;;;;5052119;28;20637;-66
2022/05/15 04:54:38;;;;;;;15.13;13.83;;;14.30;99.90;;;;;;5050822;28;21117;-67
2022/05/15 04:57:05;;;;;;;14.50;13.20;;;14.40;99.90;;;;;;5050907;28;20928;-66
2022/05/15 04:59:30;;;;;;;14.63;13.27;;;14.50;99.90;;;;;;5051545;28;20492;-66
2022/05/15 05:01:58;;;;;;;14.13;12.83;;;14.60;99.90;;;;;;5053664;28;20501;-67
2022/05/15 05:04:25;;;;;;;13.80;12.70;;;14.70;99.90;;;;;;5061679;28;20212;-68
2022/05/15 05:06:51;;;;;;;14.00;12.80;;;14.80;99.90;;;;;;5051120;28;20414;-68
2022/05/15 05:09:17;;;;;;;13.90;12.73;;;14.80;99.90;;;;;;5068351;28;20904;-72
2022/05/15 05:11:43;;;;;;;15.93;14.43;;;14.80;99.90;;;;;;5060929;28;20431;-67
2022/05/15 05:14:08;;;;;;;13.37;12.10;;;14.90;99.90;;;;;;5052370;28;20900;-67
2022/05/15 05:16:34;;;;;;;14.67;13.40;;;14.90;99.80;;;;;;5050140;28;20435;-68
2022/05/15 05:19:02;;;;;;;15.50;12.20;;;14.90;99.60;;;;;;5050843;28;20181;-69
2022/05/15 05:21:27;;;;;;;13.40;12.30;;;15.00;99.60;;;;;;5055179;28;20433;-68
2022/05/15 05:23:53;;;;;;;14.00;12.60;;;15.00;99.70;;;;;;5052141;28;20521;-67
2022/05/15 05:26:19;;;;;;;13.30;12.20;;;15.10;99.80;;;;;;5050179;28;20183;-73
2022/05/15 05:28:46;;;;;;;14.40;12.90;;;15.10;99.80;;;;;;5052007;28;20278;-68
2022/05/15 05:31:12;;;;;;;15.33;12.00;;;15.10;99.80;;;;;;5052222;28;20254;-67
2022/05/15 05:33:38;;;;;;;16.20;14.90;;;15.20;99.60;;;;;;5050042;28;20609;-68
2022/05/15 05:36:06;;;;;;;18.47;16.70;;;15.20;99.40;;;;;;5050302;28;20409;-67
2022/05/15 05:38:32;;;;;;;16.10;14.70;;;15.30;99.50;;;;;;5049846;28;20513;-67
2022/05/15 05:40:58;;;;;;;16.60;14.90;;;15.30;99.20;;;;;;5049313;28;20897;-68
2022/05/15 05:43:24;;;;;;;15.67;14.27;;;15.40;99.70;;;;;;5047413;28;20430;-68
2022/05/15 05:45:49;;;;;;;17.50;15.77;;;15.50;99.80;;;;;;5053468;28;20270;-68
2022/05/15 05:48:15;;;;;;;16.43;14.73;;;15.50;99.70;;;;;;5051420;28;20187;-67
2022/05/15 05:50:41;;;;;;;16.70;15.10;;;15.60;99.70;;;;;;5055073;28;20179;-68
2022/05/15 05:53:06;;;;;;;15.33;13.93;;;15.70;99.40;;;;;;5063590;28;20186;-67
2022/05/15 05:55:33;;;;;;;15.73;14.33;;;15.80;99.60;;;;;;5070998;28;20546;-67
2022/05/15 05:57:59;;;;;;;15.60;14.10;;;15.90;99.60;;;;;;5056802;28;20199;-68
2022/05/15 06:00:37;;;;;;;15.13;13.93;;;15.90;99.50;;;;;;5071702;28;20499;-68
2022/05/15 06:05:49;;;;;;;20.50;18.40;;;16.00;99.20;;;;;;5055556;28;20541;-68
2022/05/15 06:08:15;;;;;;;21.20;19.00;;;16.10;99.10;;;;;;5055538;28;20466;-68
2022/05/15 06:10:42;;;;;;;16.53;14.40;;;16.20;99.20;;;;;;5053706;28;20260;-66
2022/05/15 06:13:08;;;;;;;14.10;12.90;;;16.30;99.90;;;;;;5057654;28;20431;-65
2022/05/15 06:15:35;;;;;;;15.00;13.57;;;16.30;99.10;;;;;;5054718;28;20420;-65
2022/05/15 06:18:03;;;;;;;18.00;13.90;;;16.30;98.00;;;;;;5050626;28;20848;-67
2022/05/15 06:20:29;;;;;;;14.43;12.97;;;16.20;97.50;;;;;;5053258;28;20470;-66
2022/05/15 06:22:55;;;;;;;15.17;13.53;;;16.10;97.80;;;;;;5054215;28;20464;-65
2022/05/15 06:25:21;;;;;;;15.40;14.10;;;16.20;98.30;;;;;;5052945;28;20490;-65
2022/05/15 06:27:47;;;;;;;19.17;16.67;;;16.20;98.10;;;;;;5054891;28;20442;-65
2022/05/15 06:30:13;;;;;;;18.53;16.70;;;16.20;98.20;;;;;;5051449;28;20442;-65
2022/05/15 06:32:39;;;;;;;14.10;12.87;;;16.30;98.30;;;;;;5053579;28;20529;-65
2022/05/15 06:35:07;;;;;;;13.93;12.50;;;16.30;98.30;;;;;;5052383;28;20439;-65
2022/05/15 06:37:33;;;;;;;16.77;14.07;;;16.30;98.30;;;;;;5052514;28;20524;-65
2022/05/15 06:39:58;;;;;;;15.10;13.40;;;16.40;97.50;;;;;;5053915;28;20428;-65
2022/05/15 06:42:25;;;;;;;14.80;13.53;;;16.40;97.50;;;;;;5051128;28;20454;-69
2022/05/15 06:44:51;;;;;;;15.13;13.67;;;16.50;98.10;;;;;;5054297;28;20241;-65
2022/05/15 06:47:17;;;;;;;13.93;12.63;;;16.50;97.80;;;;;;5054182;28;20468;-65
2022/05/15 06:49:42;;;;;;;14.63;13.37;;;16.50;97.50;;;;;;5051732;28;20212;-65
2022/05/15 06:52:08;;;;;;;14.00;12.77;;;16.60;98.00;;;;;;5051800;28;20565;-66
2022/05/15 06:54:34;;;;;;;14.40;12.93;;;16.70;98.40;;;;;;5050850;28;20188;-65
2022/05/15 06:59:44;;;;;;;14.67;13.23;;;16.90;98.20;;;;;;5044629;28;20196;-66
2022/05/15 07:02:10;;;;;;;12.57;11.37;;;17.00;98.00;;;;;;5058365;28;20515;-65
2022/05/15 07:04:36;;;;;;;12.60;11.30;;;17.10;96.90;;;;;;5052501;28;20264;-66
2022/05/15 07:07:03;;;;;;;11.70;10.53;;;17.20;96.50;;;;;;5053724;28;20959;-66
2022/05/15 07:09:30;;;;;;;13.43;10.83;;;17.30;96.50;;;;;;5054698;28;20194;-65
2022/05/15 07:11:55;;;;;;;11.13;9.97;;;17.30;96.60;;;;;;5053681;28;20474;-65
2022/05/15 07:14:21;;;;;;;11.73;10.53;;;17.50;96.70;;;;;;5053900;28;20428;-65
2022/05/15 07:16:47;;;;;;;12.03;10.20;;;17.50;96.90;;;;;;5052637;28;20548;-65
2022/05/15 07:19:13;;;;;;;11.57;10.53;;;17.70;97.70;;;;;;5055887;28;20479;-66
2022/05/15 07:21:39;;;;;;;12.37;11.10;;;17.80;97.60;;;;;;5051810;28;20436;-67
2022/05/15 07:24:06;;;;;;;12.70;11.23;;;17.90;98.30;;;;;;5050521;28;20551;-65
2022/05/15 07:26:31;;;;;;;12.43;10.77;;;18.00;97.40;;;;;;5049870;28;20957;-66
2022/05/15 07:28:57;;;;;;;11.43;10.33;;;18.10;96.70;;;;;;5052849;28;20536;-65
2022/05/15 07:31:23;;;;;;;10.93;9.90;;;18.10;96.20;;;;;;5054185;28;20193;-66
2022/05/15 07:33:49;;;;;;;11.33;10.27;;;18.20;96.90;;;;;;5051477;28;20198;-66
2022/05/15 07:36:15;;;;;;;64.57;51.60;;;18.40;96.50;;;;;;5053656;28;20186;-66
2022/05/15 07:38:41;;;;;;;41.10;36.70;;;18.50;97.00;;;;;;5052965;28;20404;-66
2022/05/15 07:41:07;;;;;;;14.10;12.70;;;18.70;95.90;;;;;;5054998;28;20276;-66
2022/05/15 07:43:33;;;;;;;206.23;153.90;;;18.90;95.80;;;;;;5052952;28;20466;-66
2022/05/15 07:45:59;;;;;;;16.03;14.33;;;19.10;96.10;;;;;;5058192;28;20432;-66
2022/05/15 07:48:25;;;;;;;19.17;15.13;;;19.20;96.30;;;;;;5054016;28;20790;-66
2022/05/15 07:50:52;;;;;;;12.63;11.47;;;19.40;96.20;;;;;;5051793;28;20193;-66
2022/05/15 07:53:18;;;;;;;11.53;10.60;;;19.60;95.70;;;;;;5053195;28;20184;-66
2022/05/15 07:55:44;;;;;;;11.93;10.83;;;19.70;96.10;;;;;;5052504;28;20409;-66
2022/05/15 07:58:10;;;;;;;10.20;9.30;;;19.90;96.20;;;;;;5052032;28;20907;-66
2022/05/15 08:00:35;;;;;;;13.20;11.80;;;20.10;95.20;;;;;;5051982;28;20591;-66
2022/05/15 08:03:10;;;;;;;11.60;10.50;;;20.20;94.30;;;;;;5051603;28;20182;-66
2022/05/15 08:08:22;;;;;;;10.20;9.20;;;20.50;93.90;;;;;;5053063;28;20415;-66
2022/05/15 08:10:49;;;;;;;248.50;186.70;;;20.70;93.80;;;;;;5052524;28;21258;-66
2022/05/15 08:13:17;;;;;;;81.97;63.10;;;20.90;94.10;;;;;;5052776;28;20469;-65
2022/05/15 08:15:43;;;;;;;27.23;24.00;;;21.00;93.90;;;;;;5053076;28;20438;-67
2022/05/15 08:23:53;;;;;;;8.10;7.40;;;21.40;90.60;;;;;;5052043;28;20455;-66
2022/05/15 08:26:19;;;;;;;8.73;7.43;;;21.50;89.90;;;;;;5053433;28;20444;-65
2022/05/15 08:28:46;;;;;;;7.40;6.30;;;21.50;86.10;;;;;;5051977;28;20416;-66
2022/05/15 08:31:13;;;;;;;9.60;7.97;;;21.50;84.20;;;;;;5052606;28;20404;-65
2022/05/15 08:33:40;;;;;;;10.07;8.30;;;21.60;88.10;;;;;;5051826;28;20486;-65
2022/05/15 08:36:07;;;;;;;9.67;7.47;;;21.80;88.40;;;;;;5053111;28;20452;-65
2022/05/15 08:38:34;;;;;;;7.37;6.67;;;21.90;82.80;;;;;;5052113;28;20444;-71
2022/05/15 08:41:24;;;;;;;7.83;6.90;;;22.00;82.00;;;;;;5051592;28;20432;-66
2022/05/15 08:44:21;;;;;;;7.63;6.13;;;22.10;85.70;;;;;;5051081;28;20479;-66
2022/05/15 08:47:26;;;;;;;9.10;7.50;;;22.20;79.00;;;;;;5048904;28;20443;-66
2022/05/15 08:49:59;;;;;;;7.23;6.53;;;22.40;80.40;;;;;;5050048;28;20429;-66
2022/05/15 08:52:37;;;;;;;7.67;6.50;;;22.50;81.90;;;;;;5053477;28;20474;-65
2022/05/15 08:55:12;;;;;;;7.23;6.63;;;22.60;78.40;;;;;;5049351;28;20408;-66
2022/05/15 08:57:48;;;;;;;9.23;7.70;;;22.30;77.10;;;;;;5052063;28;20861;-66
2022/05/15 09:00:18;;;;;;;7.27;6.43;;;22.30;80.40;;;;;;5052874;28;20416;-66
2022/05/15 09:02:44;;;;;;;8.00;6.90;;;22.40;77.30;;;;;;5051962;28;20415;-66
2022/05/15 09:05:13;;;;;;;8.40;6.43;;;22.50;80.20;;;;;;5052627;28;20487;-66
2022/05/15 09:07:47;;;;;;;8.07;6.37;;;22.50;78.10;;;;;;5052468;28;20466;-66
2022/05/15 09:10:26;;;;;;;7.00;6.30;;;22.40;75.90;;;;;;5046441;28;20436;-65
2022/05/15 09:13:03;;;;;;;7.00;6.23;;;22.50;79.30;;;;;;5051303;28;20445;-66
2022/05/15 09:15:30;;;;;;;8.50;6.83;;;22.50;76.00;;;;;;5052258;28;20940;-65
2022/05/15 09:18:01;;;;;;;6.37;5.87;;;22.70;78.00;;;;;;5058878;28;20415;-66
2022/05/15 09:20:40;;;;;;;11.10;7.20;;;22.90;79.30;;;;;;5057453;28;20494;-65
2022/05/15 09:23:08;;;;;;;8.70;6.50;;;23.10;76.60;;;;;;5052307;28;20435;-66
2022/05/15 09:25:36;;;;;;;6.50;6.00;;;23.10;76.00;;;;;;5062298;28;20542;-72
2022/05/15 09:28:02;;;;;;;7.73;6.63;;;23.30;75.40;;;;;;5050965;28;20897;-66
2022/05/15 09:30:43;;;;;;;8.10;7.40;;;23.50;75.20;;;;;;5051445;28;20452;-67
2022/05/15 09:33:30;;;;;;;7.73;7.13;;;23.70;76.50;;;;;;5058680;28;20185;-67
2022/05/15 09:36:19;;;;;;;8.87;6.50;;;24.00;75.30;;;;;;5055122;28;20894;-67
2022/05/15 09:38:46;;;;;;;8.00;7.30;;;24.20;73.60;;;;;;5034843;28;20452;-66
2022/05/15 09:44:05;;;;;;;6.83;6.43;;;24.50;74.50;;;;;;5035749;28;20481;-65
2022/05/15 09:46:31;;;;;;;25.67;22.30;;;24.70;73.90;;;;;;5050125;28;20440;-65
2022/05/15 09:49:03;;;;;;;61.43;48.67;;;24.90;70.10;;;;;;5054942;28;20481;-65
2022/05/15 09:51:54;;;;;;;32.60;29.17;;;25.00;71.60;;;;;;5054872;28;20203;-66
2022/05/15 09:54:34;;;;;;;7.27;6.57;;;25.00;68.70;;;;;;5053424;28;20907;-65
2022/05/15 09:57:09;;;;;;;7.00;6.40;;;24.90;65.80;;;;;;5056929;28;20440;-65
2022/05/15 09:59:35;;;;;;;6.90;6.20;;;25.00;67.50;;;;;;5050596;28;20803;-70
2022/05/15 10:02:02;;;;;;;7.00;6.43;;;25.10;68.40;;;;;;5054956;28;20432;-65
2022/05/15 10:04:52;;;;;;;6.37;5.87;;;25.20;66.20;;;;;;5054794;28;20499;-66
2022/05/15 10:07:38;;;;;;;7.43;6.33;;;25.30;67.30;;;;;;5053137;28;20933;-65
2022/05/15 10:10:35;;;;;;;8.23;6.43;;;25.40;68.00;;;;;;5052001;28;20440;-66
2022/05/15 10:13:11;;;;;;;7.20;6.60;;;25.50;66.40;;;;;;5056113;28;20419;-66
2022/05/15 10:15:42;;;;;;;8.10;6.20;;;25.60;68.40;;;;;;5056815;28;20427;-66
2022/05/15 10:18:19;;;;;;;9.90;6.53;;;25.70;64.70;;;;;;5054321;28;20416;-66
2022/05/15 10:20:47;;;;;;;6.47;5.97;;;25.80;69.10;;;;;;5059558;28;20462;-66
2022/05/15 10:23:22;;;;;;;6.60;6.00;;;25.90;66.80;;;;;;5061353;28;20816;-65
2022/05/15 10:25:48;;;;;;;7.93;6.10;;;25.90;62.70;;;;;;5054978;28;20439;-66
2022/05/15 10:28:14;;;;;;;5.87;5.37;;;26.00;64.40;;;;;;5055260;28;20446;-66
2022/05/15 10:30:49;;;;;;;6.00;5.60;;;25.90;63.70;;;;;;5054400;28;20212;-73
2022/05/15 10:33:18;;;;;;;10.93;5.90;;;26.00;64.30;;;;;;5035828;28;20166;-67
2022/05/15 10:36:13;;;;;;;6.80;6.10;;;26.10;59.20;;;;;;5055496;28;20412;-66
2022/05/15 10:39:20;;;;;;;6.93;5.90;;;26.00;62.30;;;;;;5052488;28;20891;-67
2022/05/15 10:42:10;;;;;;;7.03;6.20;;;26.10;61.70;;;;;;5051542;28;20440;-66
2022/05/15 10:45:15;;;;;;;8.47;6.93;;;26.20;61.30;;;;;;5055060;28;20812;-65
2022/05/15 10:47:58;;;;;;;6.73;6.23;;;26.40;61.60;;;;;;5055087;28;20431;-67
2022/05/15 10:50:43;;;;;;;6.67;5.40;;;26.50;61.80;;;;;;5055620;28;20412;-68
2022/05/15 11:00:01;;;;;;;8.60;7.70;;;26.80;59.30;;;;;;5059637;28;20427;-65
2022/05/15 11:02:56;;;;;;;6.57;5.97;;;27.00;60.80;;;;;;5074868;28;20403;-66
2022/05/15 11:05:30;;;;;;;7.60;7.00;;;27.10;60.30;;;;;;5064495;28;20460;-65
2022/05/15 11:08:12;;;;;;;6.07;5.60;;;27.10;62.80;;;;;;5052318;28;20416;-65
2022/05/15 11:10:50;;;;;;;7.30;6.60;;;27.20;59.50;;;;;;5055854;28;20455;-67
2022/05/15 11:13:33;;;;;;;6.80;5.90;;;27.40;59.20;;;;;;5057573;28;20854;-65
2022/05/15 11:15:59;;;;;;;6.83;6.27;;;27.40;60.40;;;;;;5061097;28;21016;-65
2022/05/15 11:18:59;;;;;;;8.63;7.30;;;27.50;59.00;;;;;;5054143;28;20443;-65
2022/05/15 11:21:59;;;;;;;7.23;6.40;;;27.40;57.60;;;;;;5053993;28;20193;-65
2022/05/15 11:24:59;;;;;;;6.40;5.90;;;27.40;57.20;;;;;;5041894;28;20487;-66
2022/05/15 11:27:38;;;;;;;6.90;6.33;;;27.50;59.70;;;;;;5033995;28;20389;-65
2022/05/15 11:30:26;;;;;;;7.20;6.50;;;27.60;60.80;;;;;;5033340;28;20432;-66
2022/05/15 11:32:52;;;;;;;7.60;6.77;;;27.70;58.00;;;;;;5033875;28;20408;-66
2022/05/15 11:35:18;;;;;;;52.67;47.63;;;27.80;56.90;;;;;;5053803;28;20903;-65
2022/05/15 11:38:04;;;;;;;83.63;70.33;;;27.70;55.70;;;;;;5053194;28;20614;-70
2022/05/15 11:40:50;;;;;;;24.58;22.02;;;27.80;56.50;;;;;;5041747;28;20469;-66
2022/05/15 11:43:30;;;;;;;7.87;7.13;;;28.00;58.20;;;;;;5051033;28;20212;-66
2022/05/15 11:45:58;;;;;;;7.87;7.20;;;28.10;58.70;;;;;;5047387;28;20939;-66
2022/05/15 11:48:24;;;;;;;7.63;7.03;;;28.20;59.40;;;;;;5051642;28;20500;-66
2022/05/15 11:51:01;;;;;;;6.90;6.50;;;28.10;55.40;;;;;;5054587;28;20795;-65
2022/05/15 11:53:35;;;;;;;7.10;6.50;;;28.00;56.10;;;;;;5051793;28;20444;-65
2022/05/15 11:56:24;;;;;;;7.70;7.00;;;27.90;56.80;;;;;;5028624;28;20441;-65
2022/05/15 11:58:59;;;;;;;6.93;6.07;;;27.90;56.80;;;;;;5068148;28;20423;-65
2022/05/15 12:01:25;;;;;;;6.23;5.73;;;27.90;59.20;;;;;;5051338;28;20430;-66
2022/05/15 12:03:57;;;;;;;6.63;6.03;;;28.00;55.70;;;;;;5052339;28;20460;-65
2022/05/15 12:06:31;;;;;;;6.67;6.13;;;28.00;56.30;;;;;;5052233;28;20181;-65
2022/05/15 12:09:16;;;;;;;6.70;6.27;;;27.90;56.50;;;;;;5053803;28;20450;-65
2022/05/15 12:11:47;;;;;;;6.50;6.00;;;27.80;56.50;;;;;;5056675;28;20432;-68
2022/05/15 12:14:21;;;;;;;11.73;6.67;;;27.90;58.90;;;;;;5055934;28;20423;-65
2022/05/15 12:16:58;;;;;;;6.70;6.10;;;27.90;58.20;;;;;;5052630;28;20491;-65
2022/05/15 12:19:30;;;;;;;7.17;6.10;;;27.90;55.30;;;;;;5055005;28;20471;-65
2022/05/15 12:22:00;;;;;;;6.37;5.87;;;27.90;56.50;;;;;;5052083;28;20417;-65
2022/05/15 12:24:32;;;;;;;7.03;6.27;;;27.90;55.30;;;;;;5051549;28;20452;-65
2022/05/15 12:27:18;;;;;;;6.30;5.87;;;27.80;55.20;;;;;;5049909;28;20436;-65
2022/05/15 12:29:55;;;;;;;5.50;5.10;;;27.70;56.50;;;;;;5052316;28;20499;-70
2022/05/15 12:32:34;;;;;;;6.57;6.00;;;27.70;56.40;;;;;;5048797;28;20439;-65
2022/05/15 12:35:00;;;;;;;32.83;29.60;;;27.60;55.60;;;;;;5052488;28;21046;-65
2022/05/15 12:37:34;;;;;;;108.07;96.60;;;27.60;56.30;;;;;;5071038;28;20915;-64
2022/05/15 12:40:02;;;;;;;14.97;13.53;;;27.70;57.00;;;;;;5064226;28;20401;-65
2022/05/15 12:42:37;;;;;;;8.67;6.00;;;27.80;57.70;;;;;;5051824;28;20404;-64
2022/05/15 12:45:19;;;;;;;7.80;5.73;;;27.80;57.10;;;;;;5039976;28;20832;-65
2022/05/15 12:48:17;;;;;;;5.73;5.03;;;27.80;55.40;;;;;;5032772;28;20409;-70
2022/05/15 12:51:06;;;;;;;6.30;5.30;;;27.70;54.30;;;;;;5048451;28;20448;-68
2022/05/15 12:53:39;;;;;;;6.17;5.60;;;27.70;55.70;;;;;;5052786;28;20416;-66
2022/05/15 12:56:13;;;;;;;5.83;5.33;;;27.70;54.80;;;;;;5051754;28;20889;-66
2022/05/15 12:58:39;;;;;;;6.17;5.37;;;27.70;55.00;;;;;;5052825;28;20464;-65
2022/05/15 13:01:05;;;;;;;6.40;5.80;;;27.70;55.00;;;;;;5050650;28;20475;-66
2022/05/15 13:03:31;;;;;;;9.70;5.00;;;27.60;55.30;;;;;;5051430;28;20443;-65
2022/05/15 13:06:03;;;;;;;6.07;5.50;;;27.60;56.70;;;;;;5051824;28;20165;-66
2022/05/15 13:08:49;;;;;;;7.00;5.80;;;27.60;55.80;;;;;;5052637;28;20395;-65
2022/05/15 13:11:50;;;;;;;6.37;5.87;;;27.60;52.50;;;;;;5052345;28;20899;-66
2022/05/15 13:14:22;;;;;;;7.70;6.00;;;27.40;54.20;;;;;;5040232;28;20446;-65
2022/05/15 13:16:51;;;;;;;8.20;5.80;;;27.20;53.20;;;;;;5051881;28;20506;-66